Weather observations for the past three days for
Henderson-Oxford Airport
Metric (Imperial)
Date Time (edt) Wind (kph) Vis. (km) Weather Sky Cond. Temperature (ºC) Relative Humidity Wind Chill (°C) Heat Index (°C) Pressure Precipitation (cm)
Air Dwpt 6 hour altimeter (cm) sea level (mb) 1 hr 3 hr 6 hr
Max. Min.
02 15:15 NE 9 16.09 Partly Cloudy SCT039 SCT046 13.1 3.5 52% 75.92 0.0
02 14:35 NE 11 16.09 Partly Cloudy SCT035 SCT045 12.9 3.4 53% 75.97 0.0
02 14:15 NE 11 16.09 Partly Cloudy SCT037 12.8 4 55% 75.97 0.0
02 13:55 N 7 16.09 Partly Cloudy SCT030 SCT039 13 4.5 13 9.8 57% 75.97 0.0
02 13:35 N 11 16.09 Mostly Cloudy BKN028 BKN036 12 5.5 65% 75.97 0.0
02 13:15 N 11 16.09 Partly Cloudy SCT028 SCT034 SCT041 12.5 5.6 63% 76 0.0
02 12:55 N 9 16.09 Fair CLR 11.9 5.5 65% 76 0.0
02 12:35 N 11 16.09 Partly Cloudy SCT029 11.8 5 63% 76.07 0.0
02 12:15 NE 11 16.09 Fair CLR 11.7 5 64% 76.07 0.0
02 11:55 NE 11 16.09 Fair CLR 11.5 4.8 64% 76.07 0.0
02 11:35 NE 11 16.09 Fair CLR 11.8 5 63% 76.05 0.0
02 11:15 NE 7 16.09 Fair CLR 11.7 5.1 64% 76.05 0.0
02 10:55 NE 11 16.09 Fair CLR 11.7 5 64% 76.07 0.0
02 10:35 NE 9 16.09 Fair CLR 11.7 5.6 66% 76.05 0.0
02 10:15 NE 11 16.09 Light Rain CLR 11.3 6.1 71% 76.05 0.0
02 09:55 NE 7 16.09 Light Drizzle CLR 11 6.4 74% 76.05 0.0
02 09:35 NE 7 16.09 Partly Cloudy SCT070 11 6.6 75% 76.02 0.0
02 08:55 N 7 16.09 Partly Cloudy SCT070 10.5 6.6 77% 76.02 0.0
02 08:35 N 6 16.09 Mostly Cloudy BKN070 10.2 6.6 79% 76 0.0
02 08:15 N 6 16.09 Partly Cloudy SCT070 10 6.6 80% 76 0.0
02 07:55 N 7 16.09 Fair CLR 9.8 6.5 10.3 8.5 80% 9 76 0.0
02 07:35 N 7 16.09 Fair CLR 9.5 6.5 82% 9 76 0.0
02 07:15 N 6 16.09 Fair CLR 9.7 6.1 78% 76.02 0.0
02 06:55 Calm 16.09 Fair CLR 10 6 76% 76.02 0.0
02 06:35 N 7 16.09 Fair CLR 10 5.9 76% 9 76 0.0
02 06:15 NW 7 16.09 Fair CLR 10.1 5.8 75% 76.02 0.0
02 05:55 NW 7 16.09 Fair CLR 10.3 6 75% 76 0.0
02 05:35 NW 9 16.09 Fair CLR 10 6.5 79% 9 75.97 0.0
02 05:15 Calm 16.09 Fair CLR 9.3 7.5 89% 75.97 0.0
02 04:55 W 6 16.09 Fair CLR 9.1 7.7 91% 75.95 0.0
02 04:35 SW 6 16.09 Fair CLR 9 7.7 92% 75.92 0.0
02 04:15 SW 6 16.09 Fair CLR 9.1 7.6 90% 75.92 0.0
02 03:55 SW 7 16.09 Fair CLR 9 7.6 91% 8 75.92 0.0
02 03:35 SW 6 16.09 Fair CLR 8.7 7.6 93% 75.92 0.0
02 03:15 Calm 16.09 Fair CLR 8.8 7.6 92% 75.92 0.0
02 02:55 Calm 16.09 Fair CLR 8.6 7.7 94% 75.92 0.0
02 02:35 W 6 16.09 Fair CLR 8.7 7.5 92% 75.95 0.0
02 02:15 Calm 16.09 Fair CLR 8.6 7.7 94% 75.97 0.0
02 01:55 Calm 16.09 Fair CLR 8.5 7.8 11.5 8.5 95% 75.95 0.0
02 01:35 Calm 16.09 Fair CLR 8.9 7.5 91% 75.95 0.0
02 01:15 Calm 16.09 Fair CLR 8.7 7.4 92% 75.97 0.0
02 00:55 Calm 16.09 Fair CLR 8.6 7.4 92% 76 0.0
02 00:35 Calm 16.09 Fair CLR 8.7 7.2 90% 76 0.0
02 00:15 Calm 16.09 Fair CLR 8.6 7 90% 76 0.0
01 23:55 SW 6 16.09 Fair CLR 8.6 6.9 89% 76.02 0.0
01 23:35 S 6 16.09 Fair CLR 9 6.9 87% 76 0.0
01 23:15 S 7 16.09 Fair CLR 9.2 6.7 85% 8 76 0.0
01 22:55 S 9 16.09 Partly Cloudy SCT001 9.3 6.6 83% 8 76 0.0
01 22:35 S 9 16.09 Partly Cloudy SCT001 9.5 6.5 82% 8 76 0.0
01 22:15 S 9 16.09 Fair CLR 9.5 6.3 81% 8 76 0.0
01 21:55 S 11 16.09 Fair CLR 9.7 6.4 80% 8 76 0.0
01 21:35 S 9 16.09 Fair CLR 9.7 6.4 80% 9 76 0.0
01 21:15 S 9 16.09 Fair CLR 10 6.3 78% 9 76 0.0
01 20:55 S 7 16.09 Fair CLR 10.1 6.3 77% 75.97 0.0
01 20:35 S 7 16.09 Fair CLR 10.5 6.1 74% 75.97 0.0
01 20:15 S 9 16.09 Fair CLR 10.8 6 72% 75.92 0.0
01 19:55 S 11 16.09 Fair CLR 11.5 5.7 18.6 11.5 68% 75.95 0.0
01 19:35 S 11 16.09 Fair CLR 12.3 5.6 64% 75.95 0.0
01 19:15 S 11 16.09 Fair CLR 13.3 5.4 59% 75.95 0.0
01 18:55 S 22 16.09 Fair CLR 14 4.9 55% 75.92 0.0
01 18:35 S 19 G 28 16.09 Fair CLR 14.9 5 52% 75.95 0.0
01 18:15 S 19 16.09 Fair CLR 15.4 4.7 49% 75.95 0.0
01 17:55 S 17 G 30 16.09 Fair CLR 17.3 4.1 42% 75.95 0.0
01 17:35 S 13 16.09 Fair CLR 17.2 4 42% 75.95 0.0
01 17:15 S 13 16.09 Fair CLR 17.6 3.8 40% 75.95 0.0
01 16:55 S 15 16.09 Fair CLR 17.9 4.1 40% 75.95 0.0
01 16:35 S 7 16.09 Fair CLR 17.7 3.7 40% 75.95 0.0
01 16:15 S 11 16.09 Fair CLR 18.4 4 39% 75.97 0.0
01 15:55 SW 15 16.09 Fair CLR 18.2 3.7 38% 75.97 0.0
01 15:35 S 13 16.09 Fair CLR 17.6 3.2 38% 76.02 0.0
01 15:15 W 6 16.09 Fair CLR 17.5 2.6 37% 76.05 0.0
01 14:55 SW 17 16.09 Fair CLR 17.8 3.1 38% 76.07 0.0
01 14:35 S 9 16.09 Fair CLR 17.1 2.3 37% 76.1 0.0
01 14:15 Calm 16.09 Fair CLR 17 1.8 36% 76.1 0.0
01 13:55 NE 6 16.09 Fair CLR 16.2 2 16.5 7.3 39% 76.12 0.0
01 13:35 S 9 16.09 Fair CLR 15.6 1.9 40% 76.12 0.0
01 13:15 N 6 16.09 Fair CLR 15.3 1.7 40% 76.15 0.0
01 12:55 NE 6 16.09 Fair CLR 14.2 1.4 42% 76.17 0.0
01 12:35 Calm 16.09 Fair CLR 13.5 0.6 42% 76.17 0.0
01 12:15 E 6 16.09 Fair CLR 13.7 0.7 41% 76.2 0.0
01 11:55 SE 7 16.09 Fair CLR 13.5 0.9 42% 76.23 0.0
01 11:35 SE 9 16.09 Fair CLR 14 0.8 41% 76.25 0.0
01 11:15 NE 11 16.09 Fair CLR 13.2 0.5 42% 76.25 0.0
01 10:55 E 13 16.09 Fair CLR 13 0.2 42% 76.25 0.0
01 10:35 E 13 16.09 Fair CLR 11.4 0.8 48% 76.23 0.0
01 10:15 NE 13 16.09 Fair CLR 11 1.7 53% 76.23 0.0
01 09:55 E 15 16.09 Fair CLR 11 1.8 53% 76.25 0.0
01 09:35 NE 11 16.09 Fair CLR 10.7 1.6 54% 76.25 0.0
01 09:15 NE 9 16.09 Fair CLR 10.4 1.6 55% 76.25 0.0
01 08:55 E 9 16.09 Fair CLR 9.5 2.6 62% 8 76.25 0.0
01 08:30 NE 6 16.09 Fair CLR 8.3 2.7 68% 76.25 0.0
01 08:15 NE 6 16.09 Fair CLR 8 2.6 69% 76.23 0.0
01 07:50 NE 6 16.09 Partly Cloudy SCT100 7.3 3.1 9 4.2 75% 76.23 0.0
01 07:35 Calm 16.09 Partly Cloudy SCT100 6.6 3.3 80% 76.23 0.0
01 07:15 Calm 16.09 Fair CLR 5.4 3.5 88% 76.23 0.0
01 06:55 Calm 16.09 Fair CLR 5 2.5 84% 76.2 0.0
01 06:35 Calm 16.09 Fair CLR 4.6 2.5 86% 76.2 0.0
01 06:15 Calm 16.09 Partly Cloudy SCT100 4.2 2.3 88% 76.17 0.0
01 05:55 Calm 16.09 Fair CLR 5.3 2 80% 76.17 0.0
01 05:35 Calm 16.09 Fair CLR 5.3 2 80% 76.17 0.0
01 05:15 Calm 16.09 Fair CLR 6 1.7 74% 76.17 0.0
01 04:55 N 6 16.09 Fair CLR 6.8 2 72% 76.17 0.0
01 04:35 N 6 16.09 Fair CLR 6.9 2 71% 76.17 0.0
01 04:15 N 6 16.09 Fair CLR 7 1.6 69% 76.15 0.0
01 03:55 N 6 16.09 Fair CLR 7.3 1.5 67% 76.15 0.0
01 03:35 N 6 16.09 Fair CLR 7.5 1.7 67% 76.15 0.0
01 03:15 N 6 16.09 Fair CLR 8 1.5 64% 76.15 0.0
01 02:55 N 6 16.09 Fair CLR 8.4 1.5 62% 76.15 0.0
01 02:35 N 7 16.09 Fair CLR 8.6 1.3 60% 8 76.15 0.0
01 02:15 NE 7 16.09 Fair CLR 8.7 1.3 60% 8 76.12 0.0
01 01:55 N 6 16.09 Fair CLR 9 1.3 16.7 9 59% 76.12 0.0
01 01:35 NE 7 16.09 Fair CLR 9.5 1 56% 9 76.12 0.0
01 01:15 N 6 16.09 Fair CLR 9.9 0.8 53% 76.12 0.0
01 00:55 N 6 16.09 Fair CLR 9.8 0.7 53% 76.1 0.0
01 00:35 N 6 16.09 Fair CLR 9.5 1 56% 76.05 0.0
01 00:15 Calm 16.09 Fair CLR 10.4 0.5 51% 76.05 0.0
30 23:55 N 6 16.09 Fair CLR 11.1 0.6 49% 76.02 0.0
30 23:35 N 6 16.09 Fair CLR 12 0.2 45% 76 0.0
30 23:15 N 9 16.09 Fair CLR 12.3 0 43% 75.97 0.0
30 22:55 N 13 16.09 Fair CLR 12.6 0.2 43% 75.97 0.0
30 22:35 N 11 16.09 Fair CLR 13 0 41% 75.97 0.0
30 22:15 N 6 16.09 Fair CLR 13.3 0.3 41% 75.97 0.0
30 21:55 N 7 16.09 Fair CLR 13.7 0.7 41% 75.95 0.0
30 21:35 N 7 16.09 Fair CLR 14 1.1 42% 75.92 0.0
30 21:15 N 6 16.09 Fair CLR 14.4 1.7 42% 75.9 0.0
30 20:55 Calm 16.09 Fair CLR 15 1.6 41% 75.87 0.0
30 20:35 N 9 16.09 Fair CLR 15.3 2.3 42% 75.84 0.0
30 20:15 N 6 16.09 Fair CLR 16.1 2.5 40% 75.82 0.0
30 19:35 Calm 16.09 Fair CLR 17.7 2.5 36% 75.79 0.0
30 19:15 NW 7 16.09 Fair CLR 18.6 2.3 34% 75.74 0.0
30 18:55 NW 7 16.09 Fair CLR 19.5 1.8 31% 75.74 0.0
30 18:35 NW 9 16.09 Fair CLR 19.7 2.2 31% 75.72 0.0
30 18:15 N 13 16.09 Fair CLR 20 1.7 30% 75.72 0.0
30 17:55 NW 13 16.09 Fair CLR 20.4 2.5 31% 75.72 0.0
30 17:35 N 15 16.09 Fair CLR 20.6 2.6 31% 75.72 0.0
30 17:15 N 11 16.09 Fair CLR 20.8 3 31% 75.69 0.0
30 16:55 N 15 16.09 Fair CLR 20.2 4.2 35% 75.72 0.0
30 16:35 NW 9 16.09 Fair CLR 19.5 4 36% 75.72 0.0
30 16:15 NW 9 G 50 16.09 Partly Cloudy SCT065 20 5 38% 75.72 0.0
30 15:55 NW 17 16.09 Fair CLR 20.1 4.8 37% 75.72 0.0
30 15:35 W 9 16.09 Fair CLR 20.6 5.1 36% 75.72 0.0
30 15:15 NW 11 16.09 Fair CLR 20.9 5.8 37% 75.72 0.0
30 14:55 NW 13 16.09 Fair CLR 20 5.6 39% 75.72 0.0
30 14:35 NW 13 16.09 Fair CLR 20.2 6.4 41% 75.72 0.0
30 14:15 N 17 G 28 16.09 Fair CLR 19.7 6.8 43% 75.72 0.0
30 13:55 N 9 16.09 Fair CLR 18.8 6.8 19.4 11.7 46% 75.72 0.0 0.03
30 13:35 NW 11 16.09 Fair CLR 19.2 7.1 46% 75.74 0.0
30 13:15 NW 15 16.09 Partly Cloudy SCT043 18.8 7.8 49% 75.77 0.0
30 12:55 NW 9 16.09 Fair CLR 18.4 8.7 53% 75.79 0.0
30 12:35 NW 13 16.09 Fair CLR 16.7 8.7 59% 75.82 0.0
30 12:15 NW 11 16.09 Fair CLR 15.5 8.4 63% 75.82 0.0
30 11:55 NW 7 16.09 Fair CLR 14.9 9 68% 75.79 0.0
30 11:35 NW 17 G 28 16.09 Fair CLR 14.1 9.1 72% 75.79 0.0
30 11:15 NW 13 16.09 Fair CLR 14.1 9.5 74% 75.82 0.0
30 10:55 NW 13 16.09 Fair CLR 13.6 9.3 75% 75.79 0.0 0.03
30 10:35 NW 13 16.09 Fair CLR 13.5 9.6 77% 75.79 0.0
30 10:15 NW 11 16.09 Fair CLR 13.3 9.5 78% 75.79 0.0
30 09:55 NW 11 16.09 Fair CLR 13.2 9.3 77% 75.79 0.0
30 09:35 NW 9 16.09 Fair CLR 13.2 8.9 75% 75.82 0.0
30 09:15 NW 13 16.09 Fair CLR 13.1 8.9 76% 75.82 0.0
30 08:55 NW 11 16.09 Fair CLR 12.7 9 78% 75.79 0.0 0.03
30 08:35 W 9 16.09 Fair CLR 12.3 9.4 83% 75.79 0.0
30 08:15 W 9 16.09 Fair CLR 11.7 9.7 88% 75.79 0.0
30 07:55 W 6 16.09 Fair CLR 11.7 9.7 14.5 11 88% 75.74 0.0
30 07:35 W 6 16.09 Fair CLR 11.7 9.6 87% 75.72 0.0
30 07:15 W 6 16.09 Fair CLR 12 9.4 84% 75.72 0.0
30 06:55 NW 9 16.09 Fair CLR 11.5 9.8 89% 75.72 0.0
30 06:35 Calm 16.09 Fair CLR 11.1 10.5 96% 75.74 0.0
30 06:15 W 7 16.09 Fair CLR 11.1 10.8 98% 75.72 0.0
30 05:55 Calm 16.09 Fair CLR 11.5 10.5 94% 75.69 0.0
30 05:35 W 6 16.09 Fair CLR 12 10.3 89% 75.72 0.0
30 05:15 Calm 16.09 Fair CLR 12.6 10.5 87% 75.69 0.0
30 04:55 Calm 16.09 Fair CLR 12.9 11 88% 75.67 0.0
30 04:35 NW 6 16.09 Fair CLR 13.2 11.6 90% 75.67 0.0
30 04:15 NW 6 16.09 Fair CLR 13.3 12.1 93% 75.67 0.0
30 03:55 W 6 16.09 Fair CLR 12.8 12.6 99% 75.67 0.0
30 03:35 Calm 16.09 Fair CLR 13.7 12.1 90% 75.64 0.0
30 03:15 Calm 16.09 Fair CLR 14.3 11.7 85% 75.67 0.0
30 02:55 Calm 16.09 Fair CLR 14 12.8 93% 75.67 0.0
30 02:35 W 7 16.09 Fair CLR 14.5 13.1 91% 75.69 0.0
30 02:15 Calm 16.09 Fair CLR 14.1 14 99% 75.67 0.0
30 01:55 W 6 16.09 Fair CLR 14 13.9 99% 75.69 0.0
30 01:35 SW 6 16.09 Fair CLR 13.8 13.7 99% 75.69 0.0
30 01:15 Calm 16.09 Fair CLR 14.3 14.2 99% 75.67 0.0
30 00:55 Calm 16.09 Partly Cloudy SCT090 14.5 14.3 99% 75.69 0.0
30 00:35 W 6 16.09 Partly Cloudy SCT090 14.6 14.5 99% 75.69 0.0
30 00:15 Calm 16.09 Partly Cloudy SCT080 14.7 14.6 99% 75.69 0.0
29 23:55 S 6 16.09 Mostly Cloudy SCT065 BKN080 14.8 14.6 99% 75.69 0.0 0.03
29 23:35 Calm 16.09 Overcast OVC065 15.1 15 99% 75.69 0.0 0.03
29 23:15 SW 7 16.09 Mostly Cloudy BKN065 15.2 15.1 99% 75.72 0.0 0.03
29 22:55 NW 7 11.27 Light Rain NULL 15.1 15 99% 75.72 0.0
29 22:35 W 15 0.00 NULL NULL 0 0 0% 75.74 0.0
29 22:15 NW 22 G 33 16.09 Partly Cloudy SCT041 SCT050 SCT080 15.8 15.5 98% 75.69 0.0
29 21:55 Calm 16.09 Partly Cloudy SCT055 SCT080 15.9 15.3 96% 75.62 0.0
29 21:35 Calm 16.09 Fair CLR 15.6 15.5 99% 75.62 0.0
29 21:15 Calm 16.09 Fair CLR 15.7 15.5 99% 75.62 0.0
29 20:55 Calm 8.05 Fog/Mist CLR 16.1 15.6 97% 75.64 0.0
29 20:35 Calm 16.09 Fair CLR 16.6 15 90% 75.62 0.0
29 20:15 Calm 16.09 Fair CLR 17.6 14.9 84% 75.62 0.0
29 19:55 Calm 16.09 Fair CLR 18.2 15 19.7 16.5 82% 75.62 0.0
29 19:35 Calm 16.09 Fair CLR 18.6 14.8 79% 75.62 0.0
29 19:15 Calm 16.09 Fair CLR 18.6 14.8 79% 75.62 0.0
29 18:55 S 6 16.09 Fair CLR 19 14.7 76% 75.59 0.0
29 18:15 SW 7 16.09 Mostly Cloudy BKN025 19.5 14.7 74% 75.64 0.0
29 17:55 SW 6 16.09 Mostly Cloudy SCT016 BKN025 18.8 14.5 76% 75.67 0.0
29 17:35 SW 7 16.09 Mostly Cloudy BKN015 BKN021 18.4 14.6 79% 75.67 0.0
29 17:15 S 11 16.09 Overcast OVC013 18.9 14.5 76% 75.64 0.0
29 16:55 S 7 16.09 Overcast OVC013 18 14.6 81% 75.67 0.0
29 16:35 S 7 16.09 Overcast BKN009 OVC014 17.2 14.9 86% 75.69 0.0
29 16:15 S 7 8.05 Fog/Mist OVC011 16.7 15 90% 75.74 0.0
29 15:55 S 9 11.27 Overcast SCT005 OVC011 16.6 14.8 89% 75.74 0.0
Date Time (edt) Wind (kph) Vis. (km) Weather Sky Cond. Air Dwpt Max. Min. Relative Humidity Wind Chill (°C) Heat Index (°C) altimeter (cm) sea level (mb) 1 hr 3 hr 6 hr
6 hour
Temperature (ºC) Pressure Precipitation (cm)